»·PEaware :: N747KT KTOA-KVNY

N747KT :: KTOA-KVNY

FLIGHT INFORMATION

Flight Status: Arrived
Operator: Privately registered:
United States
More flights under this callsign
Pilot: Michael M. (12217)
Aircraft: CESSNA 172 SKYHAWK
(C172)
More flights by this aircraft type
Origin: KTOA Zamperini
United States
Destination: KVNY Van Nuys
United States
More flights between these airports :: More routes between these airports
Route: +
File this flight plan on PilotEdge
Remarks: CAT10
Altitude:
(Current/Filed)
2,500ft
Speed:
(Current/Filed)
0kts
Departed: 17-Aug-17 03:38 PM
Arrived: 17-Aug-17 04:04 PM
Distance/Time
Traveled:
25nm/0:26
Distance/Time
To Go:
Arrived

Flight Plot

Page will automatically refresh every two minutes.


Map Options




Map Legend


Flown Route
Filed Route
Departure Airport
Arrival Airport
Navaid (VOR, NDB)
Fix

Horizontal Profiles

Position Reports

Time Latitude Longitude Heading Altitude Ground
Speed
17-Aug-17 15:12 33.803342 -118.344058 39 101ft 0kts
17-Aug-17 15:13 33.803342 -118.344058 39 101ft 0kts
17-Aug-17 15:14 33.803342 -118.344058 39 101ft 0kts
17-Aug-17 15:15 33.803241 -118.343519 126 102ft 11kts
17-Aug-17 15:16 33.800983 -118.339665 51 103ft 9kts
17-Aug-17 15:16 33.800298 -118.337935 130 103ft 10kts
17-Aug-17 15:18 33.798718 -118.333742 58 101ft 11kts
17-Aug-17 15:19 33.799187 -118.333225 34 99ft 0kts
17-Aug-17 15:20 33.799187 -118.333225 34 100ft 0kts
17-Aug-17 15:20 33.799187 -118.333225 34 100ft 0kts
17-Aug-17 15:21 33.799187 -118.333225 34 100ft 0kts
17-Aug-17 15:23 33.799187 -118.333225 34 100ft 0kts
17-Aug-17 15:24 33.799187 -118.333225 34 100ft 0kts
17-Aug-17 15:25 33.799187 -118.333225 34 99ft 0kts
17-Aug-17 15:26 33.799187 -118.333225 34 100ft 0kts
17-Aug-17 15:27 33.799187 -118.333225 34 100ft 0kts
17-Aug-17 15:28 33.799187 -118.333225 34 100ft 0kts
17-Aug-17 15:29 33.799187 -118.333225 34 100ft 0kts
17-Aug-17 15:30 33.799187 -118.333225 34 100ft 0kts
17-Aug-17 15:31 33.799187 -118.333225 34 100ft 0kts
17-Aug-17 15:32 33.799187 -118.333225 34 100ft 0kts
17-Aug-17 15:33 33.799187 -118.333225 34 100ft 0kts
17-Aug-17 15:34 33.799187 -118.333225 34 100ft 0kts
17-Aug-17 15:35 33.799187 -118.333225 34 100ft 0kts
17-Aug-17 15:36 33.799187 -118.333225 34 100ft 0kts
17-Aug-17 15:37 33.799187 -118.333225 34 100ft 0kts
17-Aug-17 15:38 33.799187 -118.333225 34 100ft 0kts
17-Aug-17 15:39 33.799187 -118.333225 34 100ft 0kts
17-Aug-17 15:40 33.799187 -118.333225 34 100ft 0kts
17-Aug-17 15:41 33.802105 -118.336574 309 129ft 65kts
17-Aug-17 15:42 33.798246 -118.334136 42 103ft 16kts
17-Aug-17 15:43 33.799124 -118.333278 33 100ft 0kts
17-Aug-17 15:44 33.799124 -118.333278 33 100ft 0kts
17-Aug-17 15:45 33.799196 -118.333220 36 99ft 0kts
17-Aug-17 15:46 33.799196 -118.333220 36 99ft 0kts
17-Aug-17 15:47 33.806560 -118.341892 307 412ft 68kts
17-Aug-17 15:48 33.827974 -118.344729 350 1006ft 85kts
17-Aug-17 15:50 33.848558 -118.346721 342 1478ft 68kts
17-Aug-17 15:51 33.866608 -118.349756 341 1910ft 79kts
17-Aug-17 15:52 33.887945 -118.356298 319 2343ft 80kts
17-Aug-17 15:53 33.907167 -118.371519 318 2552ft 95kts
17-Aug-17 15:54 33.930839 -118.390914 320 2536ft 107kts
17-Aug-17 15:55 33.956138 -118.411093 316 2520ft 110kts
17-Aug-17 15:56 33.978341 -118.436134 306 2498ft 104kts
17-Aug-17 15:57 34.002667 -118.453038 320 2541ft 100kts
17-Aug-17 15:58 34.028228 -118.466668 326 2667ft 107kts
17-Aug-17 15:59 34.056025 -118.479666 11 2522ft 115kts
17-Aug-17 16:00 34.080501 -118.467990 356 2538ft 92kts
17-Aug-17 16:01 34.105464 -118.469174 356 2540ft 105kts
17-Aug-17 16:02 34.134217 -118.480369 329 2525ft 115kts
17-Aug-17 16:03 34.162199 -118.495755 347 2238ft 100kts
17-Aug-17 16:04 34.187827 -118.502272 355 1748ft 88kts
17-Aug-17 16:05 34.210072 -118.505012 356 1624ft 84kts
17-Aug-17 16:06 34.231653 -118.507567 49 1732ft 67kts
17-Aug-17 16:07 34.226082 -118.492379 165 1293ft 67kts
17-Aug-17 16:08 34.211418 -118.490533 176 780ft 28kts
17-Aug-17 16:09 34.210131 -118.491509 269 777ft 0kts
17-Aug-17 16:10 34.208296 -118.491470 174 774ft 16kts
17-Aug-17 16:11 34.206520 -118.492694 64 770ft 0kts
17-Aug-17 16:12 34.206520 -118.492694 64 770ft 0kts
17-Aug-17 16:13 34.206520 -118.492694 64 770ft 0kts
17-Aug-17 16:14 34.206520 -118.492694 64 770ft 0kts
17-Aug-17 16:15 34.206520 -118.492694 64 770ft 0kts
17-Aug-17 16:16 34.206520 -118.492694 64 770ft 0kts
17-Aug-17 16:17 34.206520 -118.492694 65 770ft 0kts
17-Aug-17 16:18 34.206520 -118.492694 65 770ft 0kts
17-Aug-17 16:19 34.206520 -118.492694 65 770ft 0kts
17-Aug-17 16:20 34.206520 -118.492694 65 770ft 0kts
17-Aug-17 16:21 34.206520 -118.492694 65 770ft 0kts
17-Aug-17 16:22 34.206520 -118.492694 65 770ft 0kts

Navigation Log

Ident Type
Flight plan parsing failed, navigation log unavailable